Time;durP1;ratioP1;P1;durP2;ratioP2;P2;SDS_P1;SDS_P2;PMS_P1;PMS_P2;Temp;Humidity;BMP_temperature;BMP_pressure;BME280_temperature;BME280_humidity;BME280_pressure;Samples;Min_cycle;Max_cycle;Signal;HPM_P1;HPM_P2
2024/04/24 00:00:14;;;;;;;3.17;2.87;;;;;;;8.52;100.00;100045.16;5514540;25;20320;-77
2024/04/24 00:02:39;;;;;;;4.63;3.63;;;;;;;8.50;100.00;100045.38;5514442;25;20501;-77
2024/04/24 00:05:05;;;;;;;3.97;3.13;;;;;;;8.49;100.00;100046.47;5509000;25;20322;-77
2024/04/24 00:07:31;;;;;;;5.75;2.95;;;;;;;8.46;100.00;100038.03;5507234;26;20315;-76
2024/04/24 00:09:57;;;;;;;4.32;3.03;;;;;;;8.42;100.00;100036.84;5496778;25;20647;-77
2024/04/24 00:12:22;;;;;;;3.55;3.25;;;;;;;8.39;100.00;100038.16;5514389;25;20307;-77
2024/04/24 00:14:48;;;;;;;3.70;3.33;;;;;;;8.39;100.00;100035.47;5510580;25;20806;-77
2024/04/24 00:17:13;;;;;;;3.93;3.17;;;;;;;8.40;100.00;100030.88;5500009;26;20881;-77
2024/04/24 00:19:38;;;;;;;5.10;3.20;;;;;;;8.38;100.00;100028.41;5512528;26;20639;-76
2024/04/24 00:22:04;;;;;;;5.47;3.03;;;;;;;8.36;100.00;100022.44;5502703;26;20310;-77
2024/04/24 00:24:29;;;;;;;6.43;3.27;;;;;;;8.37;100.00;100020.53;5507518;26;20393;-76
2024/04/24 00:26:55;;;;;;;3.87;3.40;;;;;;;8.39;100.00;100021.97;5483499;26;20682;-76
2024/04/24 00:29:23;;;;;;;5.95;3.38;;;;;;;8.37;100.00;100017.84;5511427;26;20314;-77
2024/04/24 00:31:52;;;;;;;5.83;2.90;;;;;;;8.38;100.00;100022.19;5514191;25;20355;-77
2024/04/24 00:34:17;;;;;;;6.90;3.35;;;;;;;8.38;100.00;100011.38;5513050;25;20368;-76
2024/04/24 00:36:42;;;;;;;3.90;3.17;;;;;;;8.39;100.00;100007.63;5499420;26;20651;-77
2024/04/24 00:39:08;;;;;;;5.75;3.53;;;;;;;8.39;100.00;100002.25;5507169;26;20326;-77
2024/04/24 00:41:33;;;;;;;3.53;3.00;;;;;;;8.38;100.00;99992.50;5513974;25;20336;-76
2024/04/24 00:43:58;;;;;;;4.40;3.30;;;;;;;8.36;100.00;99990.03;5505417;25;20315;-77
2024/04/24 00:46:26;;;;;;;6.80;3.60;;;;;;;8.35;100.00;99991.09;5495567;26;20306;-76
2024/04/24 00:48:52;;;;;;;5.60;3.30;;;;;;;8.31;100.00;99982.66;5508594;26;20310;-76
2024/04/24 00:51:18;;;;;;;5.10;3.38;;;;;;;8.32;100.00;99988.88;5514038;25;20308;-77
2024/04/24 00:53:43;;;;;;;3.47;3.17;;;;;;;8.31;100.00;99976.44;5513939;25;20365;-77
2024/04/24 00:56:08;;;;;;;4.38;3.17;;;;;;;8.29;100.00;99986.66;5509256;25;20309;-77
2024/04/24 00:58:37;;;;;;;3.30;3.10;;;;;;;8.26;100.00;99974.44;5506966;26;20327;-77
2024/04/24 01:01:03;;;;;;;3.38;3.17;;;;;;;8.30;100.00;99970.22;5479775;26;20369;-77
2024/04/24 01:03:30;;;;;;;3.63;2.90;;;;;;;8.33;100.00;99968.94;5513887;25;20311;-77
2024/04/24 01:05:55;;;;;;;2.90;2.70;;;;;;;8.32;100.00;99962.72;5508174;26;20479;-77
2024/04/24 01:08:20;;;;;;;3.20;2.92;;;;;;;8.30;100.00;99970.22;5506841;26;20804;-77
2024/04/24 01:10:53;;;;;;;3.70;2.90;;;;;;;8.25;100.00;99970.09;5512389;26;20320;-76
2024/04/24 01:13:18;;;;;;;4.45;3.10;;;;;;;8.22;100.00;99973.28;5513746;25;20365;-76
2024/04/24 01:15:43;;;;;;;3.23;2.93;;;;;;;8.19;100.00;99965.69;5510477;25;20367;-76
2024/04/24 01:18:10;;;;;;;5.13;2.78;;;;;;;8.17;100.00;99961.56;5476787;26;20307;-77
2024/04/24 01:20:35;;;;;;;3.70;2.80;;;;;;;8.14;100.00;99960.16;5512070;26;20845;-76
2024/04/24 01:23:14;;;;;;;3.77;3.23;;;;;;;8.12;100.00;99965.00;5494732;25;20314;-76
2024/04/24 01:26:02;;;;;;;3.40;3.03;;;;;;;8.14;100.00;99964.72;5466545;26;20312;-76
2024/04/24 01:28:28;;;;;;;6.72;5.10;;;;;;;8.14;100.00;99970.13;5493166;26;20314;-76
2024/04/24 01:30:53;;;;;;;3.70;3.30;;;;;;;8.12;100.00;99965.00;5493118;26;20322;-77
2024/04/24 01:33:18;;;;;;;3.25;2.95;;;;;;;8.13;100.00;99960.41;5479802;26;20347;-77
2024/04/24 01:35:43;;;;;;;7.03;3.60;;;;;;;8.11;100.00;99952.53;5474191;26;20322;-76
2024/04/24 01:38:09;;;;;;;3.92;2.88;;;;;;;8.10;100.00;99961.69;5493004;26;20330;-77
2024/04/24 01:40:34;;;;;;;2.53;2.33;;;;;;;8.08;100.00;99958.44;5491219;26;20360;-76
2024/04/24 01:42:59;;;;;;;3.22;2.97;;;;;;;8.07;100.00;99948.69;5497270;26;20491;-76
2024/04/24 01:45:24;;;;;;;2.70;2.50;;;;;;;8.07;100.00;99954.09;5478676;25;20319;-76
2024/04/24 01:47:50;;;;;;;3.63;3.00;;;;;;;8.07;100.00;99961.34;5492768;26;20322;-76
2024/04/24 01:50:15;;;;;;;4.20;2.97;;;;;;;8.05;100.00;99950.81;5492741;26;20825;-76
2024/04/24 01:52:40;;;;;;;3.00;2.80;;;;;;;8.07;100.00;99953.25;5464733;26;20313;-76
2024/04/24 01:55:07;;;;;;;3.27;3.00;;;;;;;8.08;100.00;99954.91;5496014;25;20818;-77
2024/04/24 01:57:32;;;;;;;3.67;2.70;;;;;;;8.09;100.00;99951.16;5492855;26;20303;-77
2024/04/24 01:59:57;;;;;;;2.80;2.60;;;;;;;8.10;100.00;99947.41;5492963;26;20349;-77
2024/04/24 02:02:23;;;;;;;3.00;2.80;;;;;;;8.11;100.00;99940.94;5492966;26;20306;-77
2024/04/24 02:04:48;;;;;;;3.50;3.20;;;;;;;8.10;100.00;99939.31;5497650;26;20319;-77
2024/04/24 02:07:13;;;;;;;3.03;2.90;;;;;;;8.09;100.00;99943.06;5492629;26;20314;-76
2024/04/24 02:09:38;;;;;;;3.37;3.00;;;;;;;8.06;100.00;99935.44;5473715;26;20925;-77
2024/04/24 02:12:04;;;;;;;3.37;2.87;;;;;;;8.02;100.00;99934.28;5483309;26;20345;-76
2024/04/24 02:14:29;;;;;;;3.60;3.30;;;;;;;8.01;100.00;99932.63;5496962;26;20351;-77
2024/04/24 02:16:54;;;;;;;4.43;3.37;;;;;;;7.98;100.00;99933.13;5492766;25;20335;-76
2024/04/24 02:19:19;;;;;;;5.70;3.57;;;;;;;7.94;100.00;99931.97;5492528;26;20314;-77
2024/04/24 02:21:44;;;;;;;3.73;3.43;;;;;;;7.92;100.00;99936.78;5492329;26;20675;-76
2024/04/24 02:24:19;;;;;;;5.97;3.43;;;;;;;7.88;100.00;99933.75;5494316;26;20326;-76
2024/04/24 02:26:44;;;;;;;4.10;3.80;;;;;;;7.86;100.00;99932.34;5469569;26;20352;-76
2024/04/24 02:29:09;;;;;;;4.47;4.07;;;;;;;7.80;100.00;99931.44;5492007;26;20355;-76
2024/04/24 02:31:35;;;;;;;5.77;4.60;;;;;;;7.77;100.00;99923.84;5494639;26;20377;-76
2024/04/24 02:34:00;;;;;;;4.72;4.00;;;;;;;7.77;100.00;99921.13;5496432;26;20338;-77
2024/04/24 02:36:25;;;;;;;5.40;3.83;;;;;;;7.75;100.00;99920.53;5498028;25;20678;-76
2024/04/24 02:38:50;;;;;;;6.07;4.30;;;;;;;7.74;100.00;99926.97;5487910;26;20325;-77
2024/04/24 02:41:16;;;;;;;4.37;4.00;;;;;;;7.71;100.00;99922.88;5482106;26;20318;-77
2024/04/24 02:43:41;;;;;;;4.37;3.97;;;;;;;7.68;100.00;99920.69;5493678;26;20322;-77
2024/04/24 02:46:06;;;;;;;5.20;4.70;;;;;;;7.65;100.00;99923.84;5469092;26;20304;-76
2024/04/24 02:48:31;;;;;;;4.50;4.07;;;;;;;7.63;100.00;99920.59;5487716;26;20317;-76
2024/04/24 02:50:57;;;;;;;5.37;4.83;;;;;;;7.58;100.00;99912.38;5476993;26;20801;-76
2024/04/24 02:53:22;;;;;;;6.30;4.47;;;;;;;7.54;100.00;99913.91;5494741;26;20322;-77
2024/04/24 02:55:47;;;;;;;5.27;4.20;;;;;;;7.51;100.00;99905.50;5499441;26;20351;-77
2024/04/24 02:58:13;;;;;;;5.40;4.50;;;;;;;7.51;100.00;99905.50;5487905;26;20324;-76
2024/04/24 03:00:38;;;;;;;4.00;3.70;;;;;;;7.49;100.00;99911.13;5488762;26;20448;-76
2024/04/24 03:03:03;;;;;;;6.37;3.80;;;;;;;7.45;100.00;99888.38;5493583;26;20384;-77
2024/04/24 03:05:29;;;;;;;4.63;3.70;;;;;;;7.38;100.00;99895.78;5497580;26;20349;-77
2024/04/24 03:07:54;;;;;;;3.80;3.47;;;;;;;7.36;100.00;99889.00;5497196;25;20316;-77
2024/04/24 03:10:19;;;;;;;3.73;3.33;;;;;;;7.30;100.00;99885.38;5495222;26;20398;-77
2024/04/24 03:12:44;;;;;;;3.63;3.30;;;;;;;7.27;100.00;99880.47;5494618;26;20847;-76
2024/04/24 03:15:10;;;;;;;3.50;3.27;;;;;;;7.26;100.00;99881.50;5495250;26;20358;-76
2024/04/24 03:17:38;;;;;;;3.03;2.87;;;;;;;7.24;100.00;99879.03;5475463;26;20841;-76
2024/04/24 03:20:04;;;;;;;3.55;3.25;;;;;;;7.23;100.00;99879.28;5495054;26;20391;-76
2024/04/24 03:22:30;;;;;;;4.25;3.13;;;;;;;7.23;100.00;99872.03;5495106;26;20318;-76
2024/04/24 03:24:55;;;;;;;4.28;3.40;;;;;;;7.24;100.00;99880.94;5494548;26;20374;-76
2024/04/24 03:27:20;;;;;;;3.90;3.57;;;;;;;7.21;100.00;99873.34;5500145;26;20416;-76
2024/04/24 03:29:45;;;;;;;3.40;3.20;;;;;;;7.22;100.00;99877.66;5494534;26;20814;-76
2024/04/24 03:32:11;;;;;;;3.85;3.45;;;;;;;7.22;100.00;99880.34;5494981;26;20357;-76
2024/04/24 03:34:36;;;;;;;10.90;7.87;;;;;;;7.17;100.00;99878.38;5490723;26;20322;-77
2024/04/24 03:37:01;;;;;;;9.75;7.20;;;;;;;7.19;100.00;99875.44;5497976;26;20785;-76
2024/04/24 03:39:26;;;;;;;7.13;5.20;;;;;;;7.21;100.00;99873.34;5495517;25;20318;-76
2024/04/24 03:41:52;;;;;;;4.57;4.13;;;;;;;7.20;100.00;99871.69;5494730;26;20311;-76
2024/04/24 03:44:17;;;;;;;4.73;3.93;;;;;;;7.17;100.00;99866.78;5485155;26;20807;-77
2024/04/24 03:46:42;;;;;;;8.10;4.20;;;;;;;7.17;100.00;99869.47;5491139;26;20307;-77
2024/04/24 03:49:07;;;;;;;5.40;4.33;;;;;;;7.16;100.00;99875.91;5497807;25;20351;-77
2024/04/24 03:51:33;;;;;;;5.07;4.17;;;;;;;7.15;100.00;99872.38;5479850;26;20705;-76
2024/04/24 03:53:58;;;;;;;4.20;3.80;;;;;;;7.09;100.00;99870.63;5494482;26;20326;-76
2024/04/24 03:56:23;;;;;;;4.88;4.47;;;;;;;7.08;100.00;99858.22;5480546;26;20326;-77
2024/04/24 03:58:49;;;;;;;5.87;4.40;;;;;;;7.11;100.00;99862.34;5498111;26;20336;-76
2024/04/24 04:01:14;;;;;;;8.15;4.68;;;;;;;7.11;100.00;99859.63;5489003;26;20414;-76
2024/04/24 04:03:39;;;;;;;8.17;4.53;;;;;;;7.14;100.00;99854.59;5470065;26;20750;-77
2024/04/24 04:06:05;;;;;;;5.20;4.70;;;;;;;7.15;100.00;99855.38;5465769;26;20313;-76
2024/04/24 04:08:30;;;;;;;5.50;5.00;;;;;;;7.11;100.00;99849.66;5490221;26;20323;-76
2024/04/24 04:10:55;;;;;;;5.57;4.93;;;;;;;7.10;100.00;99858.00;5495096;25;20821;-77
2024/04/24 04:13:20;;;;;;;5.37;4.80;;;;;;;7.09;100.00;99853.66;5475257;26;20313;-77
2024/04/24 04:15:46;;;;;;;5.60;5.10;;;;;;;7.07;100.00;99848.50;5489079;26;20319;-76
2024/04/24 04:18:11;;;;;;;6.03;4.77;;;;;;;7.10;100.00;99850.72;5495926;26;20339;-77
2024/04/24 04:20:36;;;;;;;5.77;5.27;;;;;;;7.15;100.00;99842.75;5483265;25;20952;-76
2024/04/24 04:23:01;;;;;;;7.30;5.30;;;;;;;7.15;100.00;99842.75;5480935;26;20406;-76
2024/04/24 04:25:30;;;;;;;6.18;5.68;;;;;;;7.17;100.00;99842.53;5468593;26;20317;-77
2024/04/24 04:27:59;;;;;;;8.32;5.22;;;;;;;7.18;100.00;99836.88;5476002;26;20649;-76
2024/04/24 04:30:25;;;;;;;5.30;4.90;;;;;;;7.20;100.00;99840.16;5455705;26;20321;-76
2024/04/24 04:32:50;;;;;;;5.90;5.30;;;;;;;7.22;100.00;99838.03;5484475;26;20475;-76
2024/04/24 04:35:15;;;;;;;10.23;6.10;;;;;;;7.22;100.00;99843.44;5493996;26;20388;-76
2024/04/24 04:37:41;;;;;;;8.47;5.80;;;;;;;7.23;100.00;99853.16;5491234;26;20358;-76
2024/04/24 04:40:06;;;;;;;8.20;5.63;;;;;;;7.23;100.00;99844.25;5498553;26;20817;-77
2024/04/24 04:42:32;;;;;;;7.50;5.57;;;;;;;7.21;100.00;99849.88;5490466;26;20562;-76
2024/04/24 04:44:57;;;;;;;5.90;4.90;;;;;;;7.28;100.00;99850.56;5474250;26;20434;-76
2024/04/24 04:47:22;;;;;;;9.63;6.23;;;;;;;7.28;100.00;99858.66;5483423;26;20424;-77
2024/04/24 04:49:48;;;;;;;10.90;6.93;;;;;;;7.35;100.00;99857.69;5497185;26;20323;-76
2024/04/24 04:52:13;;;;;;;5.57;5.07;;;;;;;7.38;100.00;99859.91;5484488;25;20317;-76
2024/04/24 04:54:38;;;;;;;7.60;4.80;;;;;;;7.41;100.00;99870.25;5470363;26;20330;-77
2024/04/24 04:57:03;;;;;;;6.33;4.97;;;;;;;7.42;100.00;99869.16;5491271;26;20314;-77
2024/04/24 04:59:29;;;;;;;6.47;5.33;;;;;;;7.42;100.00;99853.81;5471484;26;20910;-77
2024/04/24 05:01:54;;;;;;;7.20;5.53;;;;;;;7.40;100.00;99853.25;5485900;25;20321;-77
2024/04/24 05:04:19;;;;;;;6.97;5.27;;;;;;;7.44;100.00;99853.59;5476824;26;20366;-77
2024/04/24 05:06:45;;;;;;;6.47;5.55;;;;;;;7.50;100.00;99855.31;5482026;26;20864;-76
2024/04/24 05:09:10;;;;;;;5.17;4.77;;;;;;;7.53;100.00;99854.84;5488766;26;20324;-77
2024/04/24 05:11:35;;;;;;;6.88;5.47;;;;;;;7.54;100.00;99857.28;5486625;26;20303;-77
2024/04/24 05:14:00;;;;;;;5.70;5.20;;;;;;;7.56;100.00;99851.66;5477775;26;20662;-77
2024/04/24 05:16:26;;;;;;;6.73;6.10;;;;;;;7.55;100.00;99850.00;5484337;26;20362;-78
2024/04/24 05:18:51;;;;;;;8.17;7.17;;;;;;;7.52;100.00;99853.19;5460281;26;20803;-77
2024/04/24 05:21:16;;;;;;;5.93;5.37;;;;;;;7.46;100.00;99849.59;5464993;26;20394;-77
2024/04/24 05:23:41;;;;;;;7.00;6.20;;;;;;;7.40;100.00;99847.84;5456037;26;20381;-78
2024/04/24 05:29:10;;;;;;;6.03;5.03;;;;;;;7.63;100.00;99852.34;5484636;26;20903;-78
2024/04/24 05:31:36;;;;;;;5.00;4.50;;;;;;;7.74;100.00;99852.28;5475741;26;20330;-77
2024/04/24 05:34:02;;;;;;;5.38;4.88;;;;;;;7.74;100.00;99854.97;5463030;26;20819;-77
2024/04/24 05:36:27;;;;;;;6.30;5.38;;;;;;;7.72;100.00;99859.81;5481138;26;20307;-77
2024/04/24 05:38:53;;;;;;;6.20;4.60;;;;;;;7.72;100.00;99861.69;5495211;26;20766;-77
2024/04/24 05:41:18;;;;;;;5.87;5.30;;;;;;;7.65;100.00;99858.31;5479293;26;20304;-76
2024/04/24 05:43:43;;;;;;;6.00;5.40;;;;;;;7.58;100.00;99849.53;5477832;26;20364;-76
2024/04/24 05:46:08;;;;;;;7.10;5.73;;;;;;;7.55;100.00;99844.63;5474708;26;20412;-76
2024/04/24 05:48:34;;;;;;;5.80;5.30;;;;;;;7.51;100.00;99838.88;5469102;26;20836;-77
2024/04/24 05:50:59;;;;;;;6.17;5.33;;;;;;;7.50;100.00;99839.16;5494303;25;20346;-77
2024/04/24 05:53:24;;;;;;;6.43;5.82;;;;;;;7.52;100.00;99837.00;5484602;26;20313;-77
2024/04/24 05:55:49;;;;;;;6.33;5.77;;;;;;;7.50;100.00;99831.88;5474441;26;20326;-77
2024/04/24 05:58:15;;;;;;;6.50;5.80;;;;;;;7.44;100.00;99824.75;5488898;26;20337;-77
2024/04/24 06:00:40;;;;;;;7.23;6.10;;;;;;;7.46;100.00;99825.31;5487281;26;20322;-77
2024/04/24 06:03:06;;;;;;;7.82;7.03;;;;;;;7.52;100.00;99826.22;5492388;25;20322;-77
2024/04/24 06:05:31;;;;;;;7.85;7.20;;;;;;;7.50;100.00;99826.50;5486594;26;21060;-77
2024/04/24 06:07:57;;;;;;;12.73;7.20;;;;;;;7.52;100.00;99826.22;5490877;26;20306;-77
2024/04/24 06:10:22;;;;;;;7.63;6.87;;;;;;;7.45;100.00;99820.97;5495043;26;20350;-77
2024/04/24 06:12:47;;;;;;;8.45;7.25;;;;;;;7.45;100.00;99822.84;5494602;25;20315;-77
2024/04/24 06:15:12;;;;;;;9.83;7.87;;;;;;;7.47;100.00;99824.28;5488912;26;20418;-77
2024/04/24 06:17:38;;;;;;;8.30;7.03;;;;;;;7.51;100.00;99817.31;5479053;26;20837;-77
2024/04/24 06:20:03;;;;;;;9.00;7.50;;;;;;;7.52;100.00;99816.28;5491863;26;20408;-77
2024/04/24 06:22:28;;;;;;;8.63;7.65;;;;;;;7.54;100.00;99816.84;5496311;25;20356;-77
2024/04/24 06:24:54;;;;;;;8.37;7.40;;;;;;;7.53;100.00;99817.91;5490830;26;20362;-77
2024/04/24 06:27:19;;;;;;;8.97;7.87;;;;;;;7.55;100.00;99820.34;5488216;26;20442;-77
2024/04/24 06:29:45;;;;;;;13.87;8.37;;;;;;;7.57;100.00;99823.66;5491951;26;20326;-77
2024/04/24 06:32:11;;;;;;;13.23;9.32;;;;;;;7.56;100.00;99819.31;5492613;26;20450;-78
2024/04/24 06:34:36;;;;;;;10.83;8.97;;;;;;;7.57;100.00;99815.56;5489259;26;20323;-77
2024/04/24 06:37:01;;;;;;;10.37;8.60;;;;;;;7.60;100.00;99815.91;5486734;26;20351;-77
2024/04/24 06:39:26;;;;;;;11.00;8.63;;;;;;;7.60;100.00;99820.47;5479388;26;20324;-77
2024/04/24 06:41:52;;;;;;;9.47;8.57;;;;;;;7.63;100.00;99814.59;5476210;26;20325;-77
2024/04/24 06:44:17;;;;;;;9.90;8.27;;;;;;;7.67;100.00;99808.47;5487478;26;20322;-77
2024/04/24 06:46:42;;;;;;;9.85;8.55;;;;;;;7.72;100.00;99815.84;5484196;26;20330;-77
2024/04/24 06:49:07;;;;;;;9.63;8.40;;;;;;;7.70;100.00;99815.28;5470192;26;20353;-77
2024/04/24 06:51:32;;;;;;;11.25;10.15;;;;;;;7.57;100.00;99812.88;5480480;26;20315;-77
2024/04/24 06:53:59;;;;;;;14.47;10.67;;;;;;;7.55;100.00;99823.06;5491156;25;20324;-77
2024/04/24 06:56:25;;;;;;;15.38;9.43;;;;;;;7.57;100.00;99819.09;5490720;26;20363;-77
2024/04/24 06:58:50;;;;;;;9.23;8.43;;;;;;;7.57;100.00;99816.38;5488277;26;20318;-77
2024/04/24 07:01:15;;;;;;;10.00;9.00;;;;;;;7.58;100.00;99817.19;5490863;26;20334;-77
2024/04/24 07:03:40;;;;;;;9.85;8.82;;;;;;;7.61;100.00;99816.69;5495905;26;20312;-77
2024/04/24 07:06:06;;;;;;;12.13;9.63;;;;;;;7.65;100.00;99813.28;5491406;26;20768;-77
2024/04/24 07:08:32;;;;;;;10.50;8.18;;;;;;;7.67;100.00;99813.06;5491647;26;20314;-77
2024/04/24 07:10:58;;;;;;;11.20;8.85;;;;;;;7.64;100.00;99808.94;5491397;26;20326;-77
2024/04/24 07:13:24;;;;;;;9.98;8.98;;;;;;;7.64;100.00;99810.84;5495526;26;20331;-77
2024/04/24 07:15:49;;;;;;;18.98;11.38;;;;;;;7.62;100.00;99815.66;5490244;25;20857;-77
2024/04/24 07:18:14;;;;;;;11.93;9.60;;;;;;;7.62;100.00;99815.66;5456636;26;20387;-77
2024/04/24 07:20:39;;;;;;;12.93;10.43;;;;;;;7.55;100.00;99813.09;5483598;26;20334;-77
2024/04/24 07:23:05;;;;;;;11.82;10.45;;;;;;;7.49;100.00;99811.38;5497124;26;20318;-77
2024/04/24 07:25:32;;;;;;;11.60;9.83;;;;;;;7.41;100.00;99814.44;5497756;25;20395;-77
2024/04/24 07:27:57;;;;;;;11.57;10.43;;;;;;;7.32;100.00;99799.69;5486812;26;20353;-77
2024/04/24 07:30:22;;;;;;;13.38;11.32;;;;;;;7.28;100.00;99806.63;5481460;26;20322;-77
2024/04/24 07:32:48;;;;;;;11.60;10.37;;;;;;;7.30;100.00;99799.13;5489342;26;20444;-77
2024/04/24 07:35:13;;;;;;;11.55;10.45;;;;;;;7.27;100.00;99800.44;5497725;26;20327;-77
2024/04/24 07:37:40;;;;;;;11.37;10.27;;;;;;;7.27;100.00;99800.44;5494796;26;20318;-78
2024/04/24 07:40:06;;;;;;;20.33;10.37;;;;;;;7.34;100.00;99802.16;5494903;26;20402;-77
2024/04/24 07:42:31;;;;;;;17.43;11.13;;;;;;;7.30;100.00;99791.88;5486618;26;20328;-76
2024/04/24 07:44:56;;;;;;;11.77;10.67;;;;;;;7.36;100.00;99798.16;5480328;26;20335;-77
2024/04/24 07:47:22;;;;;;;12.67;11.20;;;;;;;7.27;100.00;99799.59;5470402;26;20793;-77
2024/04/24 07:49:47;;;;;;;12.90;11.13;;;;;;;7.22;100.00;99799.50;5487241;26;20323;-78
2024/04/24 07:52:12;;;;;;;13.68;12.35;;;;;;;7.12;100.00;99797.41;5478056;26;20739;-77
2024/04/24 07:54:40;;;;;;;14.50;13.00;;;;;;;7.05;100.00;99795.91;5494043;26;20322;-77
2024/04/24 07:57:05;;;;;;;13.52;12.18;;;;;;;7.18;100.00;99803.72;5493972;26;20311;-77
2024/04/24 07:59:30;;;;;;;15.43;13.93;;;;;;;7.23;100.00;99801.13;5491726;26;20367;-79
2024/04/24 08:01:57;;;;;;;18.23;14.30;;;;;;;7.09;100.00;99797.91;5494539;26;20319;-78
2024/04/24 08:04:22;;;;;;;15.77;14.27;;;;;;;7.05;100.00;99799.41;5503677;26;20815;-78
2024/04/24 08:06:47;;;;;;;16.63;15.07;;;;;;;7.10;100.00;99799.53;5488704;26;20404;-78
2024/04/24 08:09:14;;;;;;;16.02;14.43;;;;;;;7.11;100.00;99798.47;5493790;26;20318;-78
2024/04/24 08:11:39;;;;;;;16.55;14.95;;;;;;;7.13;100.00;99804.44;5494176;26;20342;-78
2024/04/24 08:14:05;;;;;;;15.70;14.20;;;;;;;7.15;100.00;99796.94;5494206;26;20326;-78
2024/04/24 08:16:31;;;;;;;14.95;13.55;;;;;;;7.15;100.00;99798.81;5459939;26;20310;-78
2024/04/24 08:18:57;;;;;;;16.10;14.40;;;;;;;7.17;100.00;99800.22;5492247;26;20334;-78
2024/04/24 08:21:22;;;;;;;15.37;14.07;;;;;;;7.18;100.00;99796.44;5494339;26;20307;-77
2024/04/24 08:23:48;;;;;;;16.40;14.80;;;;;;;7.22;100.00;99802.19;5474799;26;20314;-78
2024/04/24 08:26:13;;;;;;;15.40;13.97;;;;;;;7.26;100.00;99812.25;5498732;26;20340;-78
2024/04/24 08:28:40;;;;;;;16.93;14.93;;;;;;;7.26;100.00;99801.47;5491053;26;20314;-78
2024/04/24 08:31:05;;;;;;;15.35;14.02;;;;;;;7.30;100.00;99809.91;5494020;26;20852;-77
2024/04/24 08:33:31;;;;;;;17.15;15.10;;;;;;;7.29;100.00;99808.25;5494022;26;20351;-77
2024/04/24 08:36:02;;;;;;;16.17;14.60;;;;;;;7.30;100.00;99810.72;5497359;26;20314;-78
2024/04/24 08:38:27;;;;;;;17.13;15.43;;;;;;;7.30;100.00;99809.91;5492186;26;20752;-77
2024/04/24 08:40:53;;;;;;;15.90;14.40;;;;;;;7.36;100.00;99805.44;5468822;26;20330;-78
2024/04/24 08:43:18;;;;;;;15.20;13.73;;;;;;;7.37;100.00;99804.38;5469059;26;20428;-78
2024/04/24 08:45:44;;;;;;;16.63;14.73;;;;;;;7.41;100.00;99805.53;5490198;26;20534;-78
2024/04/24 08:48:09;;;;;;;15.63;14.10;;;;;;;7.42;100.00;99809.84;5495856;25;20829;-77
2024/04/24 08:50:35;;;;;;;16.37;14.70;;;;;;;7.40;100.00;99807.41;5493553;26;20346;-77
2024/04/24 08:53:03;;;;;;;16.33;14.73;;;;;;;7.45;100.00;99795.91;5493558;26;20339;-78
2024/04/24 08:55:29;;;;;;;15.98;14.30;;;;;;;7.47;100.00;99801.88;5494688;26;20322;-78
2024/04/24 08:57:55;;;;;;;15.82;14.25;;;;;;;7.45;100.00;99803.97;5488556;26;20636;-77
2024/04/24 09:00:23;;;;;;;17.10;14.27;;;;;;;7.44;100.00;99795.09;5481275;26;20478;-77
2024/04/24 09:02:53;;;;;;;15.90;13.57;;;;;;;7.45;100.00;99795.91;5459698;26;20325;-78
2024/04/24 09:05:21;;;;;;;15.38;13.88;;;;;;;7.39;100.00;99791.47;5490032;26;20371;-78
2024/04/24 09:07:46;;;;;;;16.70;14.88;;;;;;;7.43;100.00;99788.06;5454968;26;20407;-78
2024/04/24 09:10:12;;;;;;;15.73;14.10;;;;;;;7.53;100.00;99782.03;5478033;26;20836;-78
2024/04/24 09:12:38;;;;;;;14.07;12.77;;;;;;;7.57;100.00;99781.34;5491397;26;20326;-77
2024/04/24 09:15:04;;;;;;;15.07;13.50;;;;;;;7.59;100.00;99783.78;5483841;26;20689;-77
2024/04/24 09:17:30;;;;;;;16.45;14.23;;;;;;;7.58;100.00;99784.81;5496368;25;20347;-77
2024/04/24 09:19:55;;;;;;;14.83;13.33;;;;;;;7.56;100.00;99779.69;5493285;26;20744;-78
2024/04/24 09:22:20;;;;;;;16.87;13.30;;;;;;;7.51;100.00;99776.09;5485395;26;20403;-78
2024/04/24 09:24:49;;;;;;;15.03;13.43;;;;;;;7.49;100.00;99776.31;5484710;26;20751;-77
2024/04/24 09:27:18;;;;;;;14.63;13.13;;;;;;;7.54;100.00;99771.00;5496438;26;20359;-77
2024/04/24 09:29:43;;;;;;;14.95;13.43;;;;;;;7.48;100.00;99771.97;5490434;26;20399;-78
2024/04/24 09:32:09;;;;;;;16.30;14.53;;;;;;;7.47;100.00;99770.34;5457424;26;20745;-77
2024/04/24 09:34:35;;;;;;;20.77;16.17;;;;;;;7.52;100.00;99769.63;5458368;26;20309;-78
2024/04/24 09:37:01;;;;;;;21.70;17.20;;;;;;;7.53;100.00;99772.09;5491750;26;20350;-77
2024/04/24 09:39:30;;;;;;;19.55;16.40;;;;;;;7.56;100.00;99762.69;5484511;26;20341;-77
2024/04/24 09:41:56;;;;;;;16.30;14.70;;;;;;;7.60;100.00;99761.16;5486139;26;20435;-77
2024/04/24 09:44:27;;;;;;;16.88;15.18;;;;;;;7.74;100.00;99763.28;5485021;26;20326;-78
2024/04/24 09:46:53;;;;;;;16.60;14.73;;;;;;;7.81;100.00;99758.56;5472507;26;20373;-77
2024/04/24 09:49:21;;;;;;;16.75;15.07;;;;;;;7.81;100.00;99758.56;5474307;26;20712;-79
2024/04/24 09:51:48;;;;;;;18.88;15.45;;;;;;;7.80;100.00;99758.81;5476563;26;20378;-77
2024/04/24 09:54:13;;;;;;;17.53;15.83;;;;;;;7.84;100.00;99755.38;5480212;26;20684;-78
2024/04/24 09:56:43;;;;;;;17.07;15.27;;;;;;;7.86;100.00;99755.13;5479232;26;20313;-77
2024/04/24 09:59:13;;;;;;;17.55;15.32;;;;;;;7.73;100.00;99755.44;5468831;26;20310;-78
2024/04/24 10:01:49;;;;;;;17.33;14.40;;;;;;;7.66;100.00;99750.22;5492511;26;20374;-80
2024/04/24 10:04:16;;;;;;;16.60;14.90;;;;;;;7.63;100.00;99753.41;5470156;26;20347;-77
2024/04/24 10:06:45;;;;;;;15.27;13.77;;;;;;;7.57;100.00;99748.97;5489073;26;20341;-78
2024/04/24 10:09:19;;;;;;;16.00;14.40;;;;;;;7.44;100.00;99748.44;5472496;26;20393;-79
2024/04/24 10:11:50;;;;;;;18.10;14.87;;;;;;;7.36;100.00;99746.94;5471674;26;20439;-77
2024/04/24 10:14:20;;;;;;;17.23;15.43;;;;;;;7.39;100.00;99741.06;5464758;26;20321;-77
2024/04/24 10:16:46;;;;;;;16.13;14.52;;;;;;;7.49;100.00;99740.44;5486192;25;20354;-78
2024/04/24 10:19:14;;;;;;;17.33;15.52;;;;;;;7.54;100.00;99741.34;5473626;26;20366;-77
2024/04/24 10:21:40;;;;;;;16.33;14.73;;;;;;;7.66;100.00;99734.03;5473637;26;20709;-77
2024/04/24 10:24:06;;;;;;;17.33;15.45;;;;;;;7.91;100.00;99725.53;5473527;26;20317;-77
2024/04/24 10:26:32;;;;;;;17.40;14.88;;;;;;;8.05;100.00;99718.75;5470970;25;20346;-77
2024/04/24 10:29:00;;;;;;;17.33;15.63;;;;;;;8.19;100.00;99717.34;5463022;26;20371;-77
2024/04/24 10:31:26;;;;;;;17.20;15.40;;;;;;;8.41;100.00;99708.50;5485275;26;20318;-77
2024/04/24 10:33:51;;;;;;;19.60;17.57;;;;;;;8.48;100.00;99709.97;5493607;26;20424;-77
2024/04/24 10:36:17;;;;;;;18.00;15.80;;;;;;;8.50;100.00;99710.53;5486418;26;20304;-77
2024/04/24 10:38:45;;;;;;;17.93;16.13;;;;;;;8.45;100.00;99709.66;5469070;26;20321;-80
2024/04/24 10:41:10;;;;;;;16.67;15.07;;;;;;;8.40;100.00;99702.28;5451926;26;20706;-77
2024/04/24 10:43:36;;;;;;;16.47;14.87;;;;;;;8.45;100.00;99693.44;5482486;26;20347;-78
2024/04/24 10:46:03;;;;;;;17.65;15.80;;;;;;;8.37;100.00;99688.47;5485712;26;20312;-78
2024/04/24 10:48:57;;;;;;;17.55;15.77;;;;;;;8.29;100.00;99685.16;5468701;26;20358;-78
2024/04/24 10:51:30;;;;;;;18.63;16.70;;;;;;;8.43;100.00;99680.19;5492141;26;20413;-78
2024/04/24 10:53:57;;;;;;;16.73;15.02;;;;;;;8.59;100.00;99676.63;5467109;26;20308;-77
2024/04/24 10:56:29;;;;;;;16.73;15.05;;;;;;;8.67;100.00;99678.06;5471496;26;20346;-78
2024/04/24 10:58:56;;;;;;;17.60;15.90;;;;;;;8.78;100.00;99685.22;5481319;26;20382;-78
2024/04/24 11:01:28;;;;;;;15.07;13.68;;;;;;;8.86;100.00;99682.06;5472465;26;20354;-77
2024/04/24 11:03:54;;;;;;;15.70;14.20;;;;;;;8.90;100.00;99676.97;5496809;25;20448;-78
2024/04/24 11:06:20;;;;;;;16.87;15.17;;;;;;;9.10;100.00;99672.63;5482899;26;20315;-78
2024/04/24 11:08:50;;;;;;;14.48;13.10;;;;;;;9.58;100.00;99674.44;5486533;26;20321;-77
2024/04/24 11:11:25;;;;;;;14.20;12.73;;;;;;;9.75;100.00;99669.72;5493671;26;20314;-77
2024/04/24 11:14:06;;;;;;;13.57;12.27;;;;;;;9.97;100.00;99668.81;5479263;26;20325;-77
2024/04/24 11:16:31;;;;;;;13.73;12.43;;;;;;;10.67;100.00;99668.44;5514506;25;20708;-76
2024/04/24 11:18:57;;;;;;;12.43;11.23;;;;;;;11.31;100.00;99667.00;5488569;26;20319;-78
2024/04/24 11:21:26;;;;;;;12.97;11.77;;;;;;;11.51;100.00;99662.69;5487743;26;20312;-78
2024/04/24 11:23:53;;;;;;;13.18;12.00;;;;;;;11.52;100.00;99657.00;5490961;26;20330;-74